Time;durP1;ratioP1;P1;durP2;ratioP2;P2;SDS_P1;SDS_P2;PMS_P1;PMS_P2;Temp;Humidity;BMP_temperature;BMP_pressure;BME280_temperature;BME280_humidity;BME280_pressure;Samples;Min_cycle;Max_cycle;Signal;HPM_P1;HPM_P2
2023/12/04 00:00:59;;;;;;;;;;;;;;;-5.53;37.79;101392.91;5055229;28;19959;-49
2023/12/04 00:03:24;;;;;;;;;;;;;;;-5.55;38.15;101392.09;5054843;28;20393;-50
2023/12/04 00:05:49;;;;;;;;;;;;;;;-5.56;37.72;101385.19;5055159;28;19990;-50
2023/12/04 00:08:14;;;;;;;;;;;;;;;-5.58;38.14;101395.72;5054825;28;19913;-50
2023/12/04 00:10:40;;;;;;;;;;;;;;;-5.58;37.91;101400.94;5054675;28;19963;-49
2023/12/04 00:13:05;;;;;;;;;;;;;;;-5.59;37.80;101380.94;5055064;28;19995;-50
2023/12/04 00:15:30;;;;;;;;;;;;;;;-5.58;37.88;101389.63;5054903;28;19986;-53
2023/12/04 00:17:56;;;;;;;;;;;;;;;-5.59;37.86;101395.78;5054879;28;20007;-51
2023/12/04 00:20:21;;;;;;;;;;;;;;;-5.60;38.20;101391.47;5054665;28;20011;-49
2023/12/04 00:22:46;;;;;;;;;;;;;;;-5.63;38.27;101389.81;5054680;28;20029;-49
2023/12/04 00:25:12;;;;;;;;;;;;;;;-5.64;38.17;101388.97;5058564;28;19916;-52
2023/12/04 00:27:37;;;;;;;;;;;;;;;-5.65;38.47;101386.44;5074357;28;19925;-53
2023/12/04 00:30:06;;;;;;;;;;;;;;;-5.65;38.24;101383.81;5074502;28;19954;-49
2023/12/04 00:32:32;;;;;;;;;;;;;;;-5.67;38.33;101393.50;5074822;28;19913;-51
2023/12/04 00:34:57;;;;;;;;;;;;;;;-5.69;38.21;101392.72;5070936;28;19923;-52
2023/12/04 00:37:23;;;;;;;;;;;;;;;-5.68;38.36;101392.66;5036449;28;19956;-52
2023/12/04 00:39:48;;;;;;;;;;;;;;;-5.70;38.36;101385.78;5054377;28;19957;-50
2023/12/04 00:42:13;;;;;;;;;;;;;;;-5.71;38.75;101394.56;5054300;28;19917;-52
2023/12/04 00:44:39;;;;;;;;;;;;;;;-5.70;38.52;101391.88;5053733;28;19912;-50
2023/12/04 00:47:04;;;;;;;;;;;;;;;-5.70;38.35;101389.25;5054280;28;19920;-49
2023/12/04 00:49:30;;;;;;;;;;;;;;;-5.68;38.63;101389.19;5054115;28;19917;-51
2023/12/04 00:51:55;;;;;;;;;;;;;;;-5.67;38.29;101380.41;5053706;28;19948;-52
2023/12/04 00:54:20;;;;;;;;;;;;;;;-5.66;38.81;101377.72;5053206;28;19920;-48
2023/12/04 00:56:46;;;;;;;;;;;;;;;-5.66;38.81;101375.13;5054272;28;19917;-49
2023/12/04 00:59:11;;;;;;;;;;;;;;;-5.64;38.92;101380.28;5053592;28;19913;-50
2023/12/04 01:01:37;;;;;;;;;;;;;;;-5.62;38.93;101377.63;5054017;28;19913;-53
2023/12/04 01:04:03;;;;;;;;;;;;;;;-5.64;38.89;101365.44;5053697;28;19952;-49
2023/12/04 01:06:29;;;;;;;;;;;;;;;-5.66;38.45;101372.50;5053764;28;19912;-52
2023/12/04 01:08:54;;;;;;;;;;;;;;;-5.65;38.64;101376.81;5053701;28;19919;-50
2023/12/04 01:11:20;;;;;;;;;;;;;;;-5.65;38.69;101379.41;5035583;28;19940;-50
2023/12/04 01:13:45;;;;;;;;;;;;;;;-5.66;38.58;101380.34;5053929;28;20254;-52
2023/12/04 01:16:11;;;;;;;;;;;;;;;-5.67;38.89;101390.88;5053535;28;19924;-50
2023/12/04 01:18:36;;;;;;;;;;;;;;;-5.67;38.76;101389.09;5053783;28;19913;-50
2023/12/04 01:21:02;;;;;;;;;;;;;;;-5.66;38.72;101387.38;5054352;28;20031;-50
2023/12/04 01:23:27;;;;;;;;;;;;;;;-5.66;38.92;101389.97;5073595;28;19920;-51
2023/12/04 01:25:53;;;;;;;;;;;;;;;-5.68;38.72;101391.81;5073439;28;19939;-50
2023/12/04 01:28:18;;;;;;;;;;;;;;;-5.70;38.59;101391.88;5073562;28;20320;-51
2023/12/04 01:30:43;;;;;;;;;;;;;;;-5.71;38.53;101384.94;5073242;28;20332;-53
2023/12/04 01:33:09;;;;;;;;;;;;;;;-5.73;38.77;101392.00;5073178;28;20262;-49
2023/12/04 01:35:34;;;;;;;;;;;;;;;-5.71;38.51;101392.78;5065092;28;19974;-51
2023/12/04 01:37:59;;;;;;;;;;;;;;;-5.72;37.96;101403.31;5053378;28;19916;-51
2023/12/04 01:40:25;;;;;;;;;;;;;;;-5.75;37.78;101395.59;5053196;28;20362;-50
2023/12/04 01:42:51;;;;;;;;;;;;;;;-5.77;38.42;101400.06;5053159;28;19913;-54
2023/12/04 01:45:16;;;;;;;;;;;;;;;-5.76;38.05;101391.28;5053337;28;19923;-51
2023/12/04 01:47:42;;;;;;;;;;;;;;;-5.77;37.89;101405.28;5053426;28;19913;-51
2023/12/04 01:50:08;;;;;;;;;;;;;;;-5.80;37.43;101405.41;5053383;28;20243;-47
2023/12/04 01:52:35;;;;;;;;;;;;;;;-5.85;38.04;101397.75;5052812;28;19935;-48
2023/12/04 01:55:00;;;;;;;;;;;;;;;-5.85;38.18;101405.59;5052278;28;19988;-49
2023/12/04 01:57:26;;;;;;;;;;;;;;;-5.88;37.63;101403.97;5052782;28;19920;-53
2023/12/04 01:59:51;;;;;;;;;;;;;;;-5.91;37.97;101404.09;5035357;28;19913;-49
2023/12/04 02:02:17;;;;;;;;;;;;;;;-5.92;38.13;101404.16;5052720;28;19916;-51
2023/12/04 02:04:42;;;;;;;;;;;;;;;-5.93;38.28;101400.69;5052947;28;20266;-51
2023/12/04 02:07:09;;;;;;;;;;;;;;;-5.91;38.64;101408.47;5052937;28;19913;-49
2023/12/04 02:09:34;;;;;;;;;;;;;;;-5.88;38.60;101403.13;5052882;28;19920;-51
2023/12/04 02:12:00;;;;;;;;;;;;;;;-5.85;38.49;101392.50;5034956;28;19925;-50
2023/12/04 02:14:25;;;;;;;;;;;;;;;-5.86;38.24;101396.06;5052975;28;19912;-51
2023/12/04 02:16:52;;;;;;;;;;;;;;;-5.86;38.37;101396.06;5052817;28;20008;-50
2023/12/04 02:19:17;;;;;;;;;;;;;;;-5.89;37.75;101396.19;5070117;28;19912;-48
2023/12/04 02:21:42;;;;;;;;;;;;;;;-5.91;37.80;101390.16;5072826;28;19935;-48
2023/12/04 02:24:08;;;;;;;;;;;;;;;-5.93;38.37;101389.38;5072723;28;19991;-49
2023/12/04 02:26:37;;;;;;;;;;;;;;;-5.95;38.48;101388.63;5072630;28;19916;-48
2023/12/04 02:29:11;;;;;;;;;;;;;;;-5.93;38.43;101384.16;5072736;28;20369;-48
2023/12/04 02:31:39;;;;;;;;;;;;;;;-5.92;38.58;101385.88;5073085;28;19916;-49
2023/12/04 02:34:06;;;;;;;;;;;;;;;-5.92;38.39;101381.47;5072995;28;20009;-49
2023/12/04 02:36:31;;;;;;;;;;;;;;;-5.93;38.18;101382.38;5056784;28;19924;-47
2023/12/04 02:38:57;;;;;;;;;;;;;;;-5.92;38.65;101378.84;5052551;28;19913;-48
2023/12/04 02:41:23;;;;;;;;;;;;;;;-5.87;38.60;101378.66;5052785;28;19912;-50
2023/12/04 02:43:48;;;;;;;;;;;;;;;-5.89;38.87;101383.97;5058275;28;19913;-48
2023/12/04 02:46:13;;;;;;;;;;;;;;;-5.90;38.27;101384.88;5052630;28;19913;-50
2023/12/04 02:48:39;;;;;;;;;;;;;;;-5.89;39.02;101376.13;5052449;28;19912;-49
2023/12/04 02:51:05;;;;;;;;;;;;;;;-5.87;38.87;101376.03;5052535;28;19913;-49
2023/12/04 02:53:30;;;;;;;;;;;;;;;-5.87;38.50;101378.66;5052633;28;19967;-52
2023/12/04 02:55:55;;;;;;;;;;;;;;;-5.87;39.10;101382.13;5052767;28;19960;-53
2023/12/04 02:58:21;;;;;;;;;;;;;;;-5.88;38.55;101380.44;5053040;28;19952;-50
2023/12/04 03:00:46;;;;;;;;;;;;;;;-5.86;38.97;101388.22;5052766;28;19916;-49
2023/12/04 03:03:11;;;;;;;;;;;;;;;-5.87;39.22;101384.75;5052372;28;19912;-49
2023/12/04 03:05:37;;;;;;;;;;;;;;;-5.88;38.82;101384.81;5052408;28;19913;-49
2023/12/04 03:08:02;;;;;;;;;;;;;;;-5.87;39.10;101384.75;5054994;28;19912;-48
2023/12/04 03:10:27;;;;;;;;;;;;;;;-5.86;38.92;101378.59;5055732;28;19917;-49
2023/12/04 03:12:53;;;;;;;;;;;;;;;-5.88;38.87;101387.44;5055531;28;19921;-49
2023/12/04 03:15:18;;;;;;;;;;;;;;;-5.88;38.80;101387.44;5071087;28;19916;-49
2023/12/04 03:17:43;;;;;;;;;;;;;;;-5.91;39.02;101383.16;5055785;28;19958;-49
2023/12/04 03:20:09;;;;;;;;;;;;;;;-5.93;38.55;101384.16;5055746;28;19949;-48
2023/12/04 03:22:36;;;;;;;;;;;;;;;-5.97;38.60;101375.63;5055818;28;19923;-48
2023/12/04 03:25:01;;;;;;;;;;;;;;;-6.03;38.82;101378.50;5055955;28;20000;-48
2023/12/04 03:27:27;;;;;;;;;;;;;;;-6.03;38.96;101374.09;5055964;28;19944;-50
2023/12/04 03:29:52;;;;;;;;;;;;;;;-6.04;38.80;101376.78;5055976;28;19920;-49
2023/12/04 03:32:17;;;;;;;;;;;;;;;-6.02;39.00;101377.56;5055914;28;20413;-51
2023/12/04 03:34:43;;;;;;;;;;;;;;;-6.03;39.12;101374.09;5056479;28;19935;-48
2023/12/04 03:37:08;;;;;;;;;;;;;;;-6.00;38.96;101373.13;5075575;28;19916;-50
2023/12/04 03:39:33;;;;;;;;;;;;;;;-6.00;38.86;101374.91;5071609;28;19920;-51
2023/12/04 03:41:59;;;;;;;;;;;;;;;-5.97;38.96;101365.16;5055187;28;19912;-48
2023/12/04 03:44:24;;;;;;;;;;;;;;;-5.98;38.49;101370.44;5055636;28;19913;-49
2023/12/04 03:46:50;;;;;;;;;;;;;;;-5.99;38.72;101368.75;5055124;28;19940;-50
2023/12/04 03:49:16;;;;;;;;;;;;;;;-5.99;38.85;101369.59;5055523;28;19987;-49
2023/12/04 03:51:41;;;;;;;;;;;;;;;-6.01;38.88;101365.38;5055326;28;20365;-49
2023/12/04 03:54:07;;;;;;;;;;;;;;;-6.01;39.00;101370.59;5054705;28;19912;-50
2023/12/04 03:56:32;;;;;;;;;;;;;;;-5.98;38.94;101366.09;5055129;28;19917;-49
2023/12/04 03:58:57;;;;;;;;;;;;;;;-6.02;38.38;101364.50;5054965;28;19920;-50
2023/12/04 04:01:23;;;;;;;;;;;;;;;-6.05;38.16;101364.66;5055112;28;19917;-49
2023/12/04 04:03:48;;;;;;;;;;;;;;;-6.05;38.60;101367.25;5054884;28;19936;-48
2023/12/04 04:06:13;;;;;;;;;;;;;;;-6.07;38.56;101369.94;5055172;28;19978;-48
2023/12/04 04:08:39;;;;;;;;;;;;;;;-6.09;38.09;101369.16;5055322;28;19963;-48
2023/12/04 04:11:04;;;;;;;;;;;;;;;-6.09;38.84;101369.16;5065832;28;19920;-49
2023/12/04 04:13:30;;;;;;;;;;;;;;;-6.05;39.39;101370.72;5074941;28;19961;-49
2023/12/04 04:15:55;;;;;;;;;;;;;;;-6.03;39.20;101361.03;5069720;28;19921;-48
2023/12/04 04:18:20;;;;;;;;;;;;;;;-6.02;39.37;101361.88;5054408;28;19923;-49
2023/12/04 04:20:46;;;;;;;;;;;;;;;-5.99;38.90;101361.75;5055038;28;20285;-49
2023/12/04 04:23:11;;;;;;;;;;;;;;;-5.97;38.81;101356.47;5054495;28;20307;-48
2023/12/04 04:25:36;;;;;;;;;;;;;;;-5.98;38.84;101360.84;5054899;28;19956;-53
2023/12/04 04:28:02;;;;;;;;;;;;;;;-5.99;38.75;101367.00;5054920;28;20007;-50
2023/12/04 04:30:27;;;;;;;;;;;;;;;-5.99;39.19;101368.75;5067062;28;19916;-51
2023/12/04 04:32:52;;;;;;;;;;;;;;;-6.03;38.90;101358.41;5074358;28;19935;-50
2023/12/04 04:35:18;;;;;;;;;;;;;;;-6.01;39.00;101362.75;5074198;28;19912;-47
2023/12/04 04:37:43;;;;;;;;;;;;;;;-6.01;38.80;101360.13;5054449;28;19913;-49
2023/12/04 04:40:09;;;;;;;;;;;;;;;-6.05;38.83;101357.63;5054601;28;20053;-48
2023/12/04 04:42:34;;;;;;;;;;;;;;;-6.04;38.68;101361.09;5054672;28;19917;-49
2023/12/04 04:44:59;;;;;;;;;;;;;;;-6.08;38.41;101359.53;5054722;28;20430;-52
2023/12/04 04:47:25;;;;;;;;;;;;;;;-6.09;38.96;101363.91;5054193;28;20416;-50
2023/12/04 04:49:50;;;;;;;;;;;;;;;-6.10;38.63;101356.97;5054123;28;20385;-54
2023/12/04 04:52:15;;;;;;;;;;;;;;;-6.11;38.77;101359.66;5054136;28;19912;-51
2023/12/04 04:54:41;;;;;;;;;;;;;;;-6.13;38.33;101353.63;5053674;28;19913;-52
2023/12/04 04:57:08;;;;;;;;;;;;;;;-6.18;38.35;101356.47;5054450;28;19970;-50
2023/12/04 04:59:33;;;;;;;;;;;;;;;-6.21;38.68;101351.34;5036172;28;19921;-52
2023/12/04 05:01:58;;;;;;;;;;;;;;;-6.25;38.27;101353.25;5054120;28;19912;-53
2023/12/04 05:04:24;;;;;;;;;;;;;;;-6.24;38.59;101365.41;5019755;28;19913;-50
2023/12/04 05:06:49;;;;;;;;;;;;;;;-6.23;38.80;101358.41;5061160;28;19966;-52
2023/12/04 05:09:15;;;;;;;;;;;;;;;-6.19;39.02;101357.34;5074115;28;19956;-49
2023/12/04 05:11:41;;;;;;;;;;;;;;;-6.18;38.65;101359.06;5073661;28;19931;-51
2023/12/04 05:14:06;;;;;;;;;;;;;;;-6.19;38.65;101362.59;5057461;28;20292;-51
2023/12/04 05:16:32;;;;;;;;;;;;;;;-6.19;39.12;101356.53;5056740;28;19924;-49
2023/12/04 05:18:57;;;;;;;;;;;;;;;-6.18;39.29;101352.97;5053977;28;19952;-51
2023/12/04 05:21:24;;;;;;;;;;;;;;;-6.18;38.76;101353.84;5035398;28;21297;-52
2023/12/04 05:23:50;;;;;;;;;;;;;;;-6.16;39.08;101357.25;5053966;28;19916;-50
2023/12/04 05:26:15;;;;;;;;;;;;;;;-6.17;38.80;101358.16;5053788;28;19922;-52
2023/12/04 05:28:41;;;;;;;;;;;;;;;-6.15;39.14;101352.84;5053447;28;19982;-49
2023/12/04 05:31:06;;;;;;;;;;;;;;;-6.10;38.77;101356.13;5053669;28;19912;-51
2023/12/04 05:33:32;;;;;;;;;;;;;;;-6.10;39.17;101356.13;5053388;28;19920;-50
2023/12/04 05:36:00;;;;;;;;;;;;;;;-6.09;39.11;101361.31;5042077;28;19917;-51
2023/12/04 05:38:25;;;;;;;;;;;;;;;-6.08;38.63;101354.31;5033952;28;19913;-49
2023/12/04 05:40:50;;;;;;;;;;;;;;;-6.09;38.70;101356.06;5033792;28;19917;-49
2023/12/04 05:43:16;;;;;;;;;;;;;;;-6.11;38.71;101355.28;5033635;28;19914;-50
2023/12/04 05:45:41;;;;;;;;;;;;;;;-6.09;38.91;101352.59;5033616;28;19913;-50
2023/12/04 05:48:07;;;;;;;;;;;;;;;-6.08;38.66;101356.91;5033653;28;19913;-49
2023/12/04 05:50:32;;;;;;;;;;;;;;;-6.11;38.84;101352.69;5036773;28;19919;-52
2023/12/04 05:52:58;;;;;;;;;;;;;;;-6.11;38.72;101352.69;5053275;28;20358;-49
2023/12/04 05:55:24;;;;;;;;;;;;;;;-6.11;38.73;101354.41;5052822;28;20374;-50
2023/12/04 05:57:49;;;;;;;;;;;;;;;-6.15;38.24;101343.25;5053606;28;20012;-50
2023/12/04 06:00:15;;;;;;;;;;;;;;;-6.13;38.68;101345.78;5053544;28;19912;-51
2023/12/04 06:02:41;;;;;;;;;;;;;;;-6.13;38.62;101340.56;5057385;28;19939;-50
2023/12/04 06:05:07;;;;;;;;;;;;;;;-6.12;38.72;101347.50;5074266;28;19912;-50
2023/12/04 06:07:33;;;;;;;;;;;;;;;-6.11;38.47;101338.72;5073545;28;20016;-51
2023/12/04 06:09:58;;;;;;;;;;;;;;;-6.12;38.44;101339.66;5073151;28;19963;-49
2023/12/04 06:12:23;;;;;;;;;;;;;;;-6.14;38.20;101337.13;5054697;28;20296;-48
2023/12/04 06:14:49;;;;;;;;;;;;;;;-6.15;38.65;101335.41;5054795;28;19916;-48
2023/12/04 06:17:14;;;;;;;;;;;;;;;-6.17;38.26;101344.22;5056748;28;19917;-50
2023/12/04 06:19:39;;;;;;;;;;;;;;;-6.20;38.27;101340.00;5053061;28;19916;-48
2023/12/04 06:22:05;;;;;;;;;;;;;;;-6.24;38.22;101333.16;5052926;28;19959;-48
2023/12/04 06:24:30;;;;;;;;;;;;;;;-6.25;38.54;101332.31;5052899;28;19923;-48
2023/12/04 06:26:57;;;;;;;;;;;;;;;-6.26;38.71;101333.25;5052465;28;20362;-48
2023/12/04 06:29:23;;;;;;;;;;;;;;;-6.25;38.62;101327.09;5052384;28;19916;-48
2023/12/04 06:31:49;;;;;;;;;;;;;;;-6.25;38.30;101318.41;5054934;28;19936;-49
2023/12/04 06:34:14;;;;;;;;;;;;;;;-6.25;38.79;101321.03;5062930;28;20366;-48
2023/12/04 06:36:40;;;;;;;;;;;;;;;-6.24;38.39;101320.09;5064748;28;19970;-49
2023/12/04 06:39:11;;;;;;;;;;;;;;;-6.23;39.05;101324.44;5072725;28;20328;-48
2023/12/04 06:41:36;;;;;;;;;;;;;;;-6.24;38.58;101322.72;5073016;28;19912;-49
2023/12/04 06:44:02;;;;;;;;;;;;;;;-6.21;38.59;101330.44;5058753;28;19958;-48
2023/12/04 06:46:29;;;;;;;;;;;;;;;-6.21;38.29;101321.75;5076577;28;19916;-50
2023/12/04 06:48:57;;;;;;;;;;;;;;;-6.21;38.49;101326.97;5076337;28;20349;-49
2023/12/04 06:51:22;;;;;;;;;;;;;;;-6.24;38.75;101326.19;5065784;28;20389;-52
2023/12/04 06:53:48;;;;;;;;;;;;;;;-6.18;38.57;101335.56;5055954;28;19963;-49
2023/12/04 06:56:13;;;;;;;;;;;;;;;-6.16;38.64;101336.34;5056237;28;20003;-51
2023/12/04 06:58:38;;;;;;;;;;;;;;;-6.13;38.99;101341.44;5057563;28;20428;-49
2023/12/04 07:01:04;;;;;;;;;;;;;;;-6.10;38.94;101335.22;5076279;28;19920;-49
2023/12/04 07:03:29;;;;;;;;;;;;;;;-6.13;38.39;101338.81;5065261;28;20361;-48
2023/12/04 07:05:54;;;;;;;;;;;;;;;-6.11;38.71;101334.38;5067625;28;20391;-51
2023/12/04 07:08:20;;;;;;;;;;;;;;;-6.12;37.87;101332.66;5067410;28;19917;-51
2023/12/04 07:10:45;;;;;;;;;;;;;;;-6.13;38.35;101336.22;5066221;28;19924;-51
2023/12/04 07:13:12;;;;;;;;;;;;;;;-6.13;38.03;101338.81;5064411;28;19927;-51
2023/12/04 07:15:38;;;;;;;;;;;;;;;-6.16;38.35;101341.56;5042083;28;19916;-50
2023/12/04 07:18:03;;;;;;;;;;;;;;;-6.18;38.09;101340.78;5037479;28;19924;-52
2023/12/04 07:20:29;;;;;;;;;;;;;;;-6.20;38.41;101347.84;5055899;28;19999;-49
2023/12/04 07:22:54;;;;;;;;;;;;;;;-6.20;38.47;101342.59;5056116;28;20342;-51
2023/12/04 07:25:20;;;;;;;;;;;;;;;-6.17;38.49;101344.22;5055934;28;20330;-49
2023/12/04 07:27:46;;;;;;;;;;;;;;;-6.15;38.42;101345.00;5055594;28;19913;-49
2023/12/04 07:30:12;;;;;;;;;;;;;;;-6.16;38.37;101340.72;5055276;28;19919;-53
2023/12/04 07:32:37;;;;;;;;;;;;;;;-6.15;38.23;101339.78;5055047;28;19956;-52
2023/12/04 07:35:03;;;;;;;;;;;;;;;-6.16;38.49;101333.72;5065447;28;19916;-50
2023/12/04 07:37:30;;;;;;;;;;;;;;;-6.14;38.43;101338.88;5064651;28;20278;-48
2023/12/04 07:39:56;;;;;;;;;;;;;;;-6.16;38.11;101344.16;5058599;28;19913;-49
2023/12/04 07:42:22;;;;;;;;;;;;;;;-6.17;38.07;101345.06;5055312;28;20369;-49
2023/12/04 07:44:47;;;;;;;;;;;;;;;-6.17;38.33;101342.47;5055293;28;19913;-49
2023/12/04 07:47:13;;;;;;;;;;;;;;;-6.16;38.57;101335.50;5055611;28;20003;-49
2023/12/04 07:49:38;;;;;;;;;;;;;;;-6.18;38.03;101342.53;5055616;28;19920;-49
2023/12/04 07:52:04;;;;;;;;;;;;;;;-6.19;38.25;101349.53;5060332;28;19920;-50
2023/12/04 07:54:29;;;;;;;;;;;;;;;-6.17;38.37;101344.22;5055938;28;19977;-49
2023/12/04 07:56:55;;;;;;;;;;;;;;;-6.14;38.06;101349.34;5063395;28;20394;-51
2023/12/04 07:59:20;;;;;;;;;;;;;;;-6.14;37.93;101347.56;5055032;28;19917;-50
2023/12/04 08:01:45;;;;;;;;;;;;;;;-6.14;37.98;101351.97;5053864;28;20046;-54
2023/12/04 08:04:11;;;;;;;;;;;;;;;-6.16;38.05;101341.56;5058580;28;19961;-52
2023/12/04 08:06:36;;;;;;;;;;;;;;;-6.14;38.29;101351.97;5074287;28;19955;-54
2023/12/04 08:09:02;;;;;;;;;;;;;;;-6.15;38.31;101355.47;5076236;28;20361;-53
2023/12/04 08:11:28;;;;;;;;;;;;;;;-6.14;37.89;101357.19;5074818;28;19920;-50
2023/12/04 08:13:53;;;;;;;;;;;;;;;-6.09;38.35;101353.47;5074749;28;19912;-52
2023/12/04 08:16:20;;;;;;;;;;;;;;;-6.07;38.60;101354.25;5066387;28;20016;-50
2023/12/04 08:18:45;;;;;;;;;;;;;;;-6.05;37.99;101347.19;5054850;28;19948;-54
2023/12/04 08:21:11;;;;;;;;;;;;;;;-6.05;38.37;101347.19;5054515;28;19971;-54
2023/12/04 08:23:37;;;;;;;;;;;;;;;-6.03;37.68;101347.13;5054824;28;19920;-51
2023/12/04 08:26:02;;;;;;;;;;;;;;;-5.99;37.91;101353.06;5054770;28;20008;-52
2023/12/04 08:28:27;;;;;;;;;;;;;;;-6.00;37.82;101352.19;5054704;28;20007;-50
2023/12/04 08:30:53;;;;;;;;;;;;;;;-5.99;37.92;101350.47;5053820;28;19935;-51
2023/12/04 08:33:20;;;;;;;;;;;;;;;-5.94;37.87;101353.66;5054910;28;19991;-54
2023/12/04 08:35:45;;;;;;;;;;;;;;;-5.91;38.10;101357.00;5064027;28;19916;-52
2023/12/04 08:38:11;;;;;;;;;;;;;;;-5.89;37.84;101357.81;5074339;28;20018;-54
2023/12/04 08:40:36;;;;;;;;;;;;;;;-5.86;38.33;101344.59;5074479;28;19920;-54
2023/12/04 08:43:03;;;;;;;;;;;;;;;-5.82;37.92;101354.94;5074599;28;19912;-55
2023/12/04 08:45:29;;;;;;;;;;;;;;;-5.79;37.67;101350.41;5074061;28;19912;-54
2023/12/04 08:47:54;;;;;;;;;;;;;;;-5.78;37.87;101357.31;5074041;28;19919;-52
2023/12/04 08:50:20;;;;;;;;;;;;;;;-5.76;37.64;101359.88;5072691;28;19916;-51
2023/12/04 08:52:45;;;;;;;;;;;;;;;-5.73;37.98;101355.38;5068666;28;19920;-52
2023/12/04 08:55:11;;;;;;;;;;;;;;;-5.70;37.79;101370.06;5061589;28;19920;-53
2023/12/04 08:57:37;;;;;;;;;;;;;;;-5.68;37.70;101371.72;5053883;28;20008;-54
2023/12/04 09:00:03;;;;;;;;;;;;;;;-5.61;37.67;101359.22;5053803;28;19912;-54
2023/12/04 09:02:29;;;;;;;;;;;;;;;-5.60;37.94;101362.69;5054277;28;19971;-50
2023/12/04 09:04:54;;;;;;;;;;;;;;;-5.55;38.34;101352.84;5019228;28;19956;-53
2023/12/04 09:07:19;;;;;;;;;;;;;;;-5.49;38.10;101358.69;5053861;28;19955;-51
2023/12/04 09:09:46;;;;;;;;;;;;;;;-5.43;38.22;101360.16;5053802;28;19912;-54
2023/12/04 09:12:11;;;;;;;;;;;;;;;-5.38;37.73;101371.28;5053441;28;19936;-51
2023/12/04 09:14:36;;;;;;;;;;;;;;;-5.35;38.19;101362.44;5053509;28;19917;-52
2023/12/04 09:17:03;;;;;;;;;;;;;;;-5.30;38.28;101360.47;5053690;28;20332;-52
2023/12/04 09:19:29;;;;;;;;;;;;;;;-5.28;37.99;101358.63;5053779;28;20281;-51
2023/12/04 09:21:54;;;;;;;;;;;;;;;-5.25;37.83;101359.34;5053797;28;19913;-54
2023/12/04 09:24:20;;;;;;;;;;;;;;;-5.18;38.03;101361.66;5053742;28;19966;-52
2023/12/04 09:26:45;;;;;;;;;;;;;;;-5.12;37.71;101356.16;5053353;28;19947;-55
2023/12/04 09:29:11;;;;;;;;;;;;;;;-5.07;37.96;101356.78;5053933;28;19963;-52
2023/12/04 09:31:36;;;;;;;;;;;;;;;-5.03;37.46;101350.50;5053745;28;19961;-54
2023/12/04 09:34:02;;;;;;;;;;;;;;;-4.95;37.64;101356.22;5053706;28;20070;-51
2023/12/04 09:36:27;;;;;;;;;;;;;;;-4.87;37.66;101353.25;5068628;28;19923;-53
2023/12/04 09:38:52;;;;;;;;;;;;;;;-4.80;37.84;101353.81;5073731;28;20387;-51
2023/12/04 09:41:18;;;;;;;;;;;;;;;-4.74;37.31;101349.09;5073331;28;20003;-50
2023/12/04 09:43:44;;;;;;;;;;;;;;;-4.65;37.47;101350.44;5072698;28;19912;-51
2023/12/04 09:46:10;;;;;;;;;;;;;;;-4.56;37.36;101360.50;5072774;28;19955;-54
2023/12/04 09:48:37;;;;;;;;;;;;;;;-4.52;37.29;101354.16;5072559;28;19920;-54
2023/12/04 09:51:02;;;;;;;;;;;;;;;-4.46;37.35;101355.63;5064789;28;19913;-51
2023/12/04 09:53:30;;;;;;;;;;;;;;;-4.38;37.31;101355.25;5052802;28;20266;-54
2023/12/04 09:55:57;;;;;;;;;;;;;;;-4.31;37.45;101349.66;5052129;28;19924;-54
2023/12/04 09:58:23;;;;;;;;;;;;;;;-4.23;37.53;101358.91;5070413;28;20369;-53
2023/12/04 10:00:48;;;;;;;;;;;;;;;-4.16;37.39;101352.44;5072339;28;19931;-51
2023/12/04 10:03:14;;;;;;;;;;;;;;;-4.10;36.88;101362.63;5055543;28;19989;-50
2023/12/04 10:05:44;;;;;;;;;;;;;;;-4.06;36.52;101363.34;5052492;28;20266;-51
2023/12/04 10:08:09;;;;;;;;;;;;;;;-4.00;36.48;101358.59;5052482;28;19975;-54
2023/12/04 10:10:34;;;;;;;;;;;;;;;-3.89;37.20;101361.53;5052310;28;20341;-52
2023/12/04 10:13:03;;;;;;;;;;;;;;;-3.79;36.67;101361.94;5051519;28;19999;-52
2023/12/04 10:15:29;;;;;;;;;;;;;;;-3.71;36.90;101358.91;5053085;28;20365;-54
2023/12/04 10:17:54;;;;;;;;;;;;;;;-3.63;36.67;101353.25;5038556;28;19913;-54
2023/12/04 10:20:21;;;;;;;;;;;;;;;-3.54;36.35;101347.50;5057075;28;20373;-53
2023/12/04 10:22:56;;;;;;;;;;;;;;;-3.44;36.25;101347.88;5057336;28;20004;-55
2023/12/04 10:25:24;;;;;;;;;;;;;;;-3.36;36.02;101346.53;5057426;28;19920;-52
2023/12/04 10:27:49;;;;;;;;;;;;;;;-3.31;36.13;101339.28;5038982;28;19920;-52
2023/12/04 10:30:26;;;;;;;;;;;;;;;-3.26;36.18;101344.25;5057143;28;19916;-53
2023/12/04 10:32:55;;;;;;;;;;;;;;;-3.20;36.46;101340.47;5056904;28;20004;-54
2023/12/04 10:35:20;;;;;;;;;;;;;;;-3.15;35.91;101335.81;5050559;28;19975;-54
2023/12/04 10:37:46;;;;;;;;;;;;;;;-3.07;36.79;101333.59;5036774;28;19913;-51
2023/12/04 10:40:12;;;;;;;;;;;;;;;-3.03;36.18;101329.84;5036989;28;19917;-54
2023/12/04 10:42:37;;;;;;;;;;;;;;;-2.94;35.31;101339.88;5036993;28;19992;-55
2023/12/04 10:45:06;;;;;;;;;;;;;;;-2.87;35.61;101335.13;5062426;28;20007;-52
2023/12/04 10:47:34;;;;;;;;;;;;;;;-2.79;35.06;101327.66;5076676;28;19916;-54
2023/12/04 10:50:01;;;;;;;;;;;;;;;-2.68;36.03;101329.69;5076534;28;20396;-52
2023/12/04 10:52:28;;;;;;;;;;;;;;;-2.60;35.47;101331.88;5039730;28;20007;-52
2023/12/04 10:54:53;;;;;;;;;;;;;;;-2.48;35.46;101330.34;5045773;28;19944;-52
2023/12/04 10:57:25;;;;;;;;;;;;;;;-2.43;35.55;101323.03;5056170;28;19956;-53
2023/12/04 10:59:52;;;;;;;;;;;;;;;-2.33;35.13;101329.44;5056498;28;19932;-51
2023/12/04 11:02:21;;;;;;;;;;;;;;;-2.26;35.64;101325.53;5055803;28;20381;-53
2023/12/04 11:04:50;;;;;;;;;;;;;;;-2.12;35.63;101331.75;5056493;28;19955;-53
2023/12/04 11:07:16;;;;;;;;;;;;;;;-2.00;35.59;101324.00;5056875;28;19962;-52
2023/12/04 11:09:42;;;;;;;;;;;;;;;-1.91;34.94;101319.09;5055983;28;20019;-53
2023/12/04 11:12:12;;;;;;;;;;;;;;;-1.85;35.41;101316.97;5056153;28;20355;-54
2023/12/04 11:14:42;;;;;;;;;;;;;;;-1.77;34.89;101319.13;5056550;28;19913;-55
2023/12/04 11:17:11;;;;;;;;;;;;;;;-1.66;35.06;101329.84;5056482;28;20050;-55
2023/12/04 11:19:43;;;;;;;;;;;;;;;-1.53;34.84;101321.22;5056310;28;19920;-53
2023/12/04 11:22:09;;;;;;;;;;;;;;;-1.44;34.83;101316.22;5056171;28;19919;-54
2023/12/04 11:24:35;;;;;;;;;;;;;;;-1.37;35.17;101314.91;5055967;28;19917;-53
2023/12/04 11:27:01;;;;;;;;;;;;;;;-1.27;34.15;101311.69;5056055;28;20276;-54
2023/12/04 11:29:27;;;;;;;;;;;;;;;-1.21;34.42;101306.91;5055542;28;19916;-54
2023/12/04 11:31:52;;;;;;;;;;;;;;;-1.14;34.19;101306.50;5055734;28;19936;-53
2023/12/04 11:34:17;;;;;;;;;;;;;;;-1.15;33.95;101308.28;5055749;28;19913;-52
2023/12/04 11:36:44;;;;;;;;;;;;;;;-1.06;34.61;101304.22;5072969;28;19967;-54
2023/12/04 11:39:10;;;;;;;;;;;;;;;-0.94;35.14;101313.16;5075787;28;20346;-52
2023/12/04 11:41:36;;;;;;;;;;;;;;;-0.82;34.74;101309.69;5075788;28;19913;-53
2023/12/04 11:44:01;;;;;;;;;;;;;;;-0.76;34.99;101309.31;5075649;28;19912;-52
2023/12/04 11:46:28;;;;;;;;;;;;;;;-0.67;33.87;101314.00;5075434;28;19966;-53
2023/12/04 11:48:54;;;;;;;;;;;;;;;-0.61;34.12;101305.69;5075231;28;19912;-51
2023/12/04 11:51:38;;;;;;;;;;;;;;;-0.54;34.59;101300.00;5065264;28;20460;-50
2023/12/04 11:54:04;;;;;;;;;;;;;;;-0.46;33.94;101303.00;5054714;28;20231;-54
2023/12/04 11:56:30;;;;;;;;;;;;;;;-0.39;33.75;101306.88;5055463;28;19917;-50
2023/12/04 11:59:02;;;;;;;;;;;;;;;-0.31;33.44;101309.03;5055154;28;19923;-50
2023/12/04 12:01:27;;;;;;;;;;;;;;;-0.25;33.70;101306.81;5054848;28;19917;-53
2023/12/04 12:03:52;;;;;;;;;;;;;;;-0.14;33.88;101299.97;5055165;28;19982;-55
2023/12/04 12:06:18;;;;;;;;;;;;;;;-0.06;33.87;101300.28;5054495;28;19912;-54
2023/12/04 12:08:44;;;;;;;;;;;;;;;-0.07;33.67;101299.47;5054916;28;20277;-54
2023/12/04 12:11:09;;;;;;;;;;;;;;;-0.02;34.15;101297.38;5054707;28;19964;-53
2023/12/04 12:13:35;;;;;;;;;;;;;;;0.05;34.84;101300.41;5055171;28;20054;-55
2023/12/04 12:16:02;;;;;;;;;;;;;;;0.08;33.85;101299.38;5054738;28;19920;-55
2023/12/04 12:18:27;;;;;;;;;;;;;;;0.07;33.15;101292.38;5054885;28;19924;-54
2023/12/04 12:20:54;;;;;;;;;;;;;;;0.19;34.38;101287.09;5054979;28;19913;-53
2023/12/04 12:23:20;;;;;;;;;;;;;;;0.27;34.06;101280.44;5055117;28;19998;-54
2023/12/04 12:25:46;;;;;;;;;;;;;;;0.33;34.11;101293.22;5055033;28;19917;-54
2023/12/04 12:28:11;;;;;;;;;;;;;;;0.34;32.87;101282.56;5054706;28;19913;-53
2023/12/04 12:30:37;;;;;;;;;;;;;;;0.38;32.98;101281.38;5054811;28;19966;-55